createdAt,value
2023-03-06T00:01:04.542Z,7.50
2023-03-06T00:03:33.493Z,7.70
2023-03-06T00:06:00.884Z,7.80
2023-03-06T00:08:29.272Z,7.80
2023-03-06T00:10:56.808Z,9.00
2023-03-06T00:13:24.620Z,8.20
2023-03-06T00:15:51.441Z,8.20
2023-03-06T00:18:18.328Z,8.20
2023-03-06T00:20:45.895Z,8.40
2023-03-06T00:23:12.919Z,8.20
2023-03-06T00:25:43.286Z,8.30
2023-03-06T00:28:10.533Z,8.10
2023-03-06T00:30:37.714Z,8.20
2023-03-06T00:33:04.523Z,8.30
2023-03-06T00:35:31.434Z,8.50
2023-03-06T00:37:59.908Z,8.50
2023-03-06T00:40:27.129Z,8.50
2023-03-06T00:42:53.992Z,8.50
2023-03-06T00:45:20.804Z,8.80
2023-03-06T00:47:47.653Z,8.70
2023-03-06T00:50:14.451Z,8.70
2023-03-06T00:52:42.024Z,8.70
2023-03-06T00:55:10.159Z,8.60
2023-03-06T00:57:37.081Z,8.70
2023-03-06T01:00:05.119Z,8.70
2023-03-06T01:02:32.202Z,8.80
2023-03-06T01:04:59.010Z,8.80
2023-03-06T01:07:27.376Z,8.70
2023-03-06T01:09:54.456Z,8.80
2023-03-06T01:12:23.378Z,9.80
2023-03-06T01:14:50.374Z,8.90
2023-03-06T01:17:17.623Z,8.80
2023-03-06T01:19:44.382Z,8.80
2023-03-06T01:22:11.111Z,8.90
2023-03-06T01:24:37.939Z,8.80
2023-03-06T01:27:04.894Z,8.80
2023-03-06T01:29:31.690Z,8.90
2023-03-06T01:31:58.510Z,8.80
2023-03-06T01:34:25.564Z,8.90
2023-03-06T01:36:52.292Z,8.80
2023-03-06T01:39:19.038Z,8.90
2023-03-06T01:41:45.848Z,9.00
2023-03-06T01:44:13.787Z,9.00
2023-03-06T01:46:43.164Z,9.00
2023-03-06T01:49:15.852Z,8.90
2023-03-06T01:52:01.732Z,9.00
2023-03-06T01:54:39.142Z,9.00
2023-03-06T01:57:12.775Z,9.00
2023-03-06T01:59:42.072Z,9.00
2023-03-06T02:02:11.618Z,8.90
2023-03-06T02:04:40.274Z,9.00
2023-03-06T02:07:15.387Z,9.10
2023-03-06T02:09:42.136Z,9.00
2023-03-06T02:12:14.305Z,9.10
2023-03-06T02:14:42.146Z,10.00
2023-03-06T02:17:11.894Z,9.10
2023-03-06T02:20:06.696Z,9.10
2023-03-06T02:22:46.219Z,9.00
2023-03-06T02:25:35.614Z,9.10
2023-03-06T02:28:02.935Z,9.00
2023-03-06T02:30:30.506Z,9.10
2023-03-06T02:32:57.579Z,9.10
2023-03-06T02:35:27.362Z,10.20
2023-03-06T02:37:55.356Z,9.60
2023-03-06T02:40:23.252Z,9.10
2023-03-06T02:42:53.334Z,9.30
2023-03-06T02:45:32.028Z,9.40
2023-03-06T02:47:58.745Z,9.60
2023-03-06T02:50:25.597Z,9.60
2023-03-06T02:52:52.383Z,9.70
2023-03-06T02:55:19.239Z,9.70
2023-03-06T02:57:46.029Z,9.60
2023-03-06T03:00:14.191Z,9.50
2023-03-06T03:02:41.307Z,9.50
2023-03-06T03:05:08.948Z,9.40
2023-03-06T03:07:36.149Z,9.50
2023-03-06T03:10:03.504Z,9.40
2023-03-06T03:12:30.317Z,9.40
2023-03-06T03:14:57.031Z,9.50
2023-03-06T03:17:24.363Z,9.50
2023-03-06T03:19:51.447Z,9.50
2023-03-06T03:22:18.730Z,9.40
2023-03-06T03:24:46.272Z,9.40
2023-03-06T03:27:13.613Z,9.40
2023-03-06T03:29:40.913Z,9.50
2023-03-06T03:32:07.908Z,9.50
2023-03-06T03:34:34.888Z,9.50
2023-03-06T03:37:01.686Z,9.40
2023-03-06T03:39:28.499Z,9.40
2023-03-06T03:41:55.231Z,9.30
2023-03-06T03:44:26.019Z,9.30
2023-03-06T03:46:52.888Z,10.00
2023-03-06T03:49:19.700Z,9.30
2023-03-06T03:51:46.577Z,9.20
2023-03-06T03:54:13.476Z,9.10
2023-03-06T03:56:40.714Z,9.10
2023-03-06T03:59:08.052Z,9.10
2023-03-06T04:01:34.974Z,9.10
2023-03-06T04:04:01.698Z,9.00
2023-03-06T04:06:28.628Z,9.00
2023-03-06T04:08:55.823Z,8.90
2023-03-06T04:11:23.134Z,9.00
2023-03-06T04:13:49.925Z,9.10
2023-03-06T04:16:16.750Z,9.10
2023-03-06T04:18:43.572Z,9.40
2023-03-06T04:21:10.298Z,9.50
2023-03-06T04:23:37.051Z,9.70
2023-03-06T04:26:04.143Z,10.00
2023-03-06T04:28:31.103Z,10.10
2023-03-06T04:30:57.904Z,10.40
2023-03-06T04:33:24.804Z,10.30
2023-03-06T04:35:51.609Z,11.30
2023-03-06T04:38:18.476Z,10.20
2023-03-06T04:40:45.515Z,10.10
2023-03-06T04:43:12.640Z,10.10
2023-03-06T04:45:39.391Z,10.20
2023-03-06T04:48:06.367Z,10.20
2023-03-06T04:50:33.721Z,10.10
2023-03-06T04:53:01.602Z,10.00
2023-03-06T04:55:28.830Z,10.10
2023-03-06T04:57:55.938Z,10.00
2023-03-06T05:00:27.987Z,9.90
2023-03-06T05:02:54.800Z,10.10
2023-03-06T05:05:21.547Z,10.10
2023-03-06T05:07:48.364Z,10.10
2023-03-06T05:10:18.593Z,10.20
2023-03-06T05:12:45.540Z,11.10
2023-03-06T05:15:13.626Z,10.10
2023-03-06T05:17:40.647Z,10.00
2023-03-06T05:20:09.642Z,10.10
2023-03-06T05:22:36.782Z,10.10
2023-03-06T05:25:04.876Z,10.20
2023-03-06T05:27:32.034Z,10.20
2023-03-06T05:29:59.085Z,10.30
2023-03-06T05:32:25.915Z,10.40
2023-03-06T05:34:52.665Z,10.50
2023-03-06T05:37:19.400Z,10.50
2023-03-06T05:39:46.535Z,10.50
2023-03-06T05:42:13.344Z,10.50
2023-03-06T05:44:41.718Z,10.50
2023-03-06T05:47:09.305Z,10.70
2023-03-06T05:49:36.750Z,10.50
2023-03-06T05:52:04.925Z,10.60
2023-03-06T05:54:36.703Z,10.60
2023-03-06T05:57:04.931Z,10.60
2023-03-06T05:59:33.024Z,10.70
2023-03-06T06:02:00.679Z,10.60
2023-03-06T06:04:28.114Z,10.60
2023-03-06T06:06:57.144Z,9.90
2023-03-06T06:09:24.676Z,10.50
2023-03-06T06:11:57.150Z,10.40
2023-03-06T06:14:24.007Z,10.50
2023-03-06T06:16:51.126Z,10.70
2023-03-06T06:19:20.843Z,10.50
2023-03-06T06:21:49.662Z,10.40
2023-03-06T06:24:18.741Z,10.40
2023-03-06T06:26:46.181Z,10.30
2023-03-06T06:29:13.608Z,10.50
2023-03-06T06:31:41.055Z,10.40
2023-03-06T06:34:09.866Z,10.20
2023-03-06T06:36:36.832Z,10.20
2023-03-06T06:39:04.585Z,10.40
2023-03-06T06:41:50.711Z,10.40
2023-03-06T06:44:19.824Z,10.70
2023-03-06T06:47:21.352Z,10.90
2023-03-06T06:49:34.606Z,11.20
2023-03-06T06:52:01.499Z,11.80
2023-03-06T06:54:28.538Z,12.00
2023-03-06T06:56:55.263Z,12.20
2023-03-06T06:59:23.740Z,12.10
2023-03-06T07:01:52.138Z,12.20
2023-03-06T07:04:19.702Z,12.30
2023-03-06T07:06:46.659Z,12.30
2023-03-06T07:09:14.442Z,12.30
2023-03-06T07:11:41.602Z,12.30
2023-03-06T07:14:08.483Z,12.20
2023-03-06T07:16:35.384Z,12.00
2023-03-06T07:19:02.222Z,11.80
2023-03-06T07:21:28.967Z,11.60
2023-03-06T07:23:57.465Z,11.40
2023-03-06T07:26:28.485Z,11.30
2023-03-06T07:28:55.450Z,11.30
2023-03-06T07:31:25.453Z,11.90
2023-03-06T07:33:54.098Z,11.90
2023-03-06T07:36:22.187Z,12.50
2023-03-06T07:38:48.982Z,12.20
2023-03-06T07:41:16.554Z,12.30
2023-03-06T07:43:45.366Z,12.30
2023-03-06T07:46:14.123Z,12.20
2023-03-06T07:48:41.894Z,12.50
2023-03-06T07:51:16.694Z,12.20
2023-03-06T07:53:43.936Z,12.20
2023-03-06T07:56:11.891Z,13.90
2023-03-06T07:58:41.394Z,12.40
2023-03-06T08:01:11.531Z,12.60
2023-03-06T08:03:38.343Z,13.10
2023-03-06T08:06:10.672Z,13.20
2023-03-06T08:08:39.543Z,13.80
2023-03-06T08:11:08.072Z,13.30
2023-03-06T08:13:35.726Z,14.70
2023-03-06T08:16:03.058Z,13.80
2023-03-06T08:18:30.009Z,14.60
2023-03-06T08:21:11.779Z,14.60
2023-03-06T08:23:39.420Z,14.60
2023-03-06T08:26:09.111Z,15.00
2023-03-06T08:28:35.843Z,15.70
2023-03-06T08:31:43.376Z,14.70
2023-03-06T08:34:16.424Z,14.50
2023-03-06T08:36:43.954Z,14.70
2023-03-06T08:39:11.299Z,14.40
2023-03-06T08:41:38.639Z,14.50
2023-03-06T08:44:05.567Z,15.80
2023-03-06T08:46:33.439Z,15.80
2023-03-06T08:49:00.319Z,15.80
2023-03-06T08:51:28.906Z,15.80
2023-03-06T08:53:57.430Z,15.80
2023-03-06T08:56:30.106Z,15.80
2023-03-06T08:58:59.664Z,15.80
2023-03-06T09:01:29.596Z,15.50
2023-03-06T09:04:02.295Z,15.80
2023-03-06T09:06:32.640Z,15.80
2023-03-06T09:09:00.188Z,15.80
2023-03-06T09:11:27.393Z,15.90
2023-03-06T09:13:54.607Z,15.80
2023-03-06T09:16:22.799Z,15.80
2023-03-06T09:18:52.786Z,15.90
2023-03-06T09:21:24.875Z,15.90
2023-03-06T09:23:52.240Z,15.90
2023-03-06T09:26:19.004Z,15.50
2023-03-06T09:28:46.016Z,14.70
2023-03-06T09:31:18.461Z,14.30
2023-03-06T09:33:46.062Z,14.10
2023-03-06T09:36:18.943Z,13.90
2023-03-06T09:38:47.856Z,13.80
2023-03-06T09:41:27.102Z,13.60
2023-03-06T09:44:04.666Z,13.50
2023-03-06T09:47:00.270Z,13.50
2023-03-06T09:49:30.345Z,13.40
2023-03-06T09:52:23.180Z,13.20
2023-03-06T09:55:04.556Z,12.90
2023-03-06T09:57:36.066Z,12.60
2023-03-06T10:00:11.607Z,12.60
2023-03-06T10:02:49.560Z,12.60
2023-03-06T10:05:33.450Z,12.50
2023-03-06T10:08:06.065Z,12.50
2023-03-06T10:10:46.660Z,12.20
2023-03-06T10:13:25.077Z,11.70
2023-03-06T10:15:58.423Z,12.50
2023-03-06T10:18:25.278Z,12.10
2023-03-06T10:21:18.720Z,14.30
2023-03-06T10:23:54.516Z,11.70
2023-03-06T10:26:27.992Z,11.30
2023-03-06T10:28:57.585Z,11.40
2023-03-06T10:31:28.670Z,10.80
2023-03-06T10:34:13.759Z,10.70
2023-03-06T10:36:40.652Z,8.50
2023-03-06T10:39:16.087Z,6.50
2023-03-06T10:41:45.325Z,6.20
2023-03-06T10:44:12.076Z,6.90
2023-03-06T10:46:46.927Z,7.70
2023-03-06T10:49:31.921Z,4.20
2023-03-06T10:52:06.882Z,3.30
2023-03-06T10:54:58.083Z,5.40
2023-03-06T10:57:26.366Z,5.10
2023-03-06T10:59:56.053Z,5.20
2023-03-06T11:02:25.969Z,4.70
2023-03-06T11:04:54.217Z,4.00
2023-03-06T11:07:27.298Z,4.30
2023-03-06T11:09:58.056Z,5.20
2023-03-06T11:12:35.151Z,4.80
2023-03-06T11:15:14.261Z,4.80
2023-03-06T11:17:50.369Z,5.50
2023-03-06T11:20:22.160Z,5.60
2023-03-06T11:23:12.088Z,3.70
2023-03-06T11:25:50.363Z,5.50
2023-03-06T11:28:37.043Z,5.30
2023-03-06T11:31:17.170Z,5.20
2023-03-06T11:34:00.176Z,5.00
2023-03-06T11:36:44.682Z,4.30
2023-03-06T11:39:26.368Z,4.20
2023-03-06T11:42:13.300Z,5.00
2023-03-06T11:45:16.442Z,2.50
2023-03-06T11:48:03.317Z,4.20
2023-03-06T11:50:43.940Z,4.60
2023-03-06T11:53:29.774Z,1.80
2023-03-06T11:56:20.270Z,2.40
2023-03-06T11:59:31.002Z,2.50
2023-03-06T12:02:35.509Z,2.70
2023-03-06T12:05:33.280Z,2.70
2023-03-06T12:08:16.868Z,2.70
2023-03-06T12:10:54.348Z,4.00
2023-03-06T12:13:49.974Z,2.80
2023-03-06T12:16:43.691Z,1.20
2023-03-06T12:19:40.894Z,2.60
2023-03-06T12:22:40.378Z,1.00
2023-03-06T12:25:27.725Z,1.00
2023-03-06T12:28:32.360Z,1.00
2023-03-06T12:30:59.111Z,1.60
2023-03-06T12:33:31.785Z,1.00
2023-03-06T12:36:33.480Z,1.00
2023-03-06T12:39:08.507Z,1.00
2023-03-06T12:42:11.464Z,1.00
2023-03-06T12:45:15.768Z,1.20
2023-03-06T12:47:46.467Z,1.00
2023-03-06T12:50:28.757Z,1.00
2023-03-06T12:52:58.814Z,1.00
2023-03-06T12:55:26.247Z,1.00
2023-03-06T12:57:53.937Z,1.00
2023-03-06T13:00:34.048Z,1.00
2023-03-06T13:03:19.600Z,1.00
2023-03-06T13:06:27.900Z,1.00
2023-03-06T13:09:20.037Z,1.00
2023-03-06T13:12:31.710Z,1.00
2023-03-06T13:15:01.366Z,1.00
2023-03-06T13:17:37.875Z,1.00
2023-03-06T13:20:13.771Z,1.00
2023-03-06T13:22:45.697Z,1.00
2023-03-06T13:25:21.491Z,1.00
2023-03-06T13:27:54.335Z,1.00
2023-03-06T13:30:39.385Z,1.00
2023-03-06T13:33:33.061Z,1.00
2023-03-06T13:36:19.058Z,1.00
2023-03-06T13:38:48.766Z,1.00
2023-03-06T13:41:27.558Z,1.00
2023-03-06T13:43:56.564Z,1.00
2023-03-06T13:46:37.419Z,1.00
2023-03-06T13:49:05.128Z,1.00
2023-03-06T13:51:55.217Z,1.00
2023-03-06T13:54:36.984Z,1.00
2023-03-06T13:57:15.812Z,1.00
2023-03-06T14:00:09.317Z,1.00
2023-03-06T14:03:14.815Z,1.00
2023-03-06T14:05:44.725Z,1.00
2023-03-06T14:08:21.593Z,1.00
2023-03-06T14:10:59.193Z,1.00
2023-03-06T14:13:41.855Z,1.00
2023-03-06T14:16:21.072Z,1.00
2023-03-06T14:18:50.546Z,1.00
2023-03-06T14:21:32.333Z,1.00
2023-03-06T14:24:01.853Z,1.00
2023-03-06T14:26:42.642Z,1.00
2023-03-06T14:29:27.127Z,1.00
2023-03-06T14:31:56.673Z,1.00
2023-03-06T14:34:33.752Z,1.00
2023-03-06T14:37:03.302Z,1.00
2023-03-06T14:39:36.185Z,1.00
2023-03-06T14:42:24.740Z,1.00
2023-03-06T14:45:24.812Z,1.00
2023-03-06T14:47:53.009Z,1.00
2023-03-06T14:50:27.019Z,1.00
2023-03-06T14:52:58.544Z,1.00
2023-03-06T14:55:28.308Z,1.00
2023-03-06T14:58:16.164Z,1.00
2023-03-06T15:00:46.242Z,1.00
2023-03-06T15:03:27.552Z,1.00
2023-03-06T15:05:55.360Z,1.00
2023-03-06T15:08:30.495Z,1.00
2023-03-06T15:11:02.815Z,1.00
2023-03-06T15:13:31.048Z,1.00
2023-03-06T15:16:04.740Z,1.00
2023-03-06T15:18:39.026Z,1.00
2023-03-06T15:21:07.760Z,1.00
2023-03-06T15:23:40.150Z,1.00
2023-03-06T15:26:33.678Z,1.00
2023-03-06T15:29:09.690Z,1.00
2023-03-06T15:31:38.964Z,1.00
2023-03-06T15:34:11.562Z,1.00
2023-03-06T15:36:44.191Z,1.00
2023-03-06T15:39:32.035Z,1.00
2023-03-06T15:41:58.973Z,1.00
2023-03-06T15:44:26.707Z,1.00
2023-03-06T15:47:07.685Z,1.00
2023-03-06T15:49:37.602Z,1.00
2023-03-06T15:52:05.576Z,1.00
2023-03-06T15:54:33.061Z,1.00
2023-03-06T15:57:00.425Z,1.00
2023-03-06T15:59:32.933Z,1.00
2023-03-06T16:02:10.634Z,1.00
2023-03-06T16:04:37.466Z,1.00
2023-03-06T16:07:04.305Z,1.00
2023-03-06T16:09:31.014Z,1.00
2023-03-06T16:11:57.777Z,1.00
2023-03-06T16:14:24.520Z,1.00
2023-03-06T16:16:53.979Z,1.00
2023-03-06T16:19:26.301Z,1.00
2023-03-06T16:21:54.240Z,1.00
2023-03-06T16:24:22.282Z,1.00
2023-03-06T16:26:51.496Z,1.00
2023-03-06T16:29:21.733Z,1.00
2023-03-06T16:31:49.630Z,1.00
2023-03-06T16:34:21.416Z,1.00
2023-03-06T16:36:49.266Z,1.00
2023-03-06T16:39:18.762Z,1.00
2023-03-06T16:41:46.056Z,1.00
2023-03-06T16:44:13.403Z,1.00
2023-03-06T16:46:45.874Z,1.00
2023-03-06T16:49:22.442Z,1.00
2023-03-06T16:51:49.889Z,1.00
2023-03-06T16:54:17.142Z,2.70
2023-03-06T16:56:45.628Z,4.50
2023-03-06T16:59:12.870Z,4.70
2023-03-06T17:01:42.903Z,5.50
2023-03-06T17:04:10.548Z,6.40
2023-03-06T17:06:37.986Z,6.90
2023-03-06T17:09:05.508Z,7.50
2023-03-06T17:11:32.315Z,7.60
2023-03-06T17:13:59.330Z,7.30
2023-03-06T17:16:26.108Z,7.80
2023-03-06T17:18:55.032Z,7.90
2023-03-06T17:21:22.281Z,7.30
2023-03-06T17:23:50.754Z,7.30
2023-03-06T17:26:19.081Z,6.60
2023-03-06T17:28:47.067Z,6.30
2023-03-06T17:31:22.645Z,6.10
2023-03-06T17:33:51.335Z,5.80
2023-03-06T17:36:19.218Z,5.50
2023-03-06T17:38:46.192Z,5.30
2023-03-06T17:41:13.469Z,5.30
2023-03-06T17:43:41.025Z,5.10
2023-03-06T17:46:10.130Z,5.00
2023-03-06T17:48:37.715Z,4.90
2023-03-06T17:51:04.804Z,4.80
2023-03-06T17:53:32.243Z,4.70
2023-03-06T17:56:03.576Z,4.70
2023-03-06T17:58:30.751Z,4.50
2023-03-06T18:00:57.948Z,4.60
2023-03-06T18:03:24.851Z,4.40
2023-03-06T18:06:02.515Z,4.20
2023-03-06T18:08:29.637Z,4.00
2023-03-06T18:11:00.660Z,4.00
2023-03-06T18:13:27.396Z,4.00
2023-03-06T18:15:54.297Z,4.00
2023-03-06T18:18:21.192Z,4.10
2023-03-06T18:20:48.181Z,4.10
2023-03-06T18:23:15.247Z,4.30
2023-03-06T18:25:42.478Z,4.80
2023-03-06T18:28:09.727Z,5.30
2023-03-06T18:30:39.082Z,5.60
2023-03-06T18:33:06.055Z,6.40
2023-03-06T18:35:33.937Z,7.20
2023-03-06T18:38:00.926Z,8.30
2023-03-06T18:40:27.919Z,8.60
2023-03-06T18:42:54.895Z,9.10
2023-03-06T18:45:21.664Z,9.50
2023-03-06T18:47:48.518Z,9.70
2023-03-06T18:50:17.681Z,9.60
2023-03-06T18:52:44.908Z,9.30
2023-03-06T18:55:12.613Z,10.60
2023-03-06T18:57:39.802Z,9.00
2023-03-06T19:00:07.701Z,8.50
2023-03-06T19:02:34.505Z,8.20
2023-03-06T19:05:01.387Z,8.00
2023-03-06T19:07:28.247Z,7.60
2023-03-06T19:09:55.173Z,7.40
2023-03-06T19:12:22.139Z,7.20
2023-03-06T19:14:49.114Z,7.20
2023-03-06T19:17:15.946Z,7.20
2023-03-06T19:19:42.782Z,7.10
2023-03-06T19:22:09.548Z,7.00
2023-03-06T19:24:36.427Z,6.90
2023-03-06T19:27:03.367Z,6.70
2023-03-06T19:29:30.186Z,7.70
2023-03-06T19:31:58.787Z,6.60
2023-03-06T19:34:25.692Z,6.70
2023-03-06T19:36:52.671Z,6.90
2023-03-06T19:39:19.598Z,6.90
2023-03-06T19:41:47.882Z,6.70
2023-03-06T19:44:16.226Z,6.70
2023-03-06T19:46:43.527Z,6.60
2023-03-06T19:49:16.844Z,6.80
2023-03-06T19:51:44.312Z,6.90
2023-03-06T19:54:12.436Z,7.00
2023-03-06T19:56:39.591Z,7.30
2023-03-06T19:59:06.698Z,8.20
2023-03-06T20:01:34.287Z,7.50
2023-03-06T20:04:01.477Z,7.50
2023-03-06T20:06:33.325Z,7.30
2023-03-06T20:09:02.284Z,7.40
2023-03-06T20:11:32.498Z,7.40
2023-03-06T20:14:02.358Z,7.30
2023-03-06T20:16:30.269Z,7.30
2023-03-06T20:18:58.933Z,7.90
2023-03-06T20:21:27.301Z,7.80
2023-03-06T20:23:56.879Z,7.80
2023-03-06T20:26:24.550Z,7.70
2023-03-06T20:28:51.466Z,7.70
2023-03-06T20:31:20.401Z,7.60
2023-03-06T20:33:51.933Z,7.50
2023-03-06T20:36:24.336Z,7.30
2023-03-06T20:38:51.330Z,7.30
2023-03-06T20:41:20.893Z,7.20
2023-03-06T20:43:48.267Z,7.00
2023-03-06T20:46:19.994Z,7.00
2023-03-06T20:48:51.490Z,6.80
2023-03-06T20:51:23.852Z,6.70
2023-03-06T20:53:55.479Z,6.90
2023-03-06T20:56:27.910Z,6.70
2023-03-06T20:58:55.205Z,6.80
2023-03-06T21:01:25.935Z,6.80
2023-03-06T21:03:53.563Z,6.60
2023-03-06T21:06:21.436Z,6.60
2023-03-06T21:08:48.737Z,6.50
2023-03-06T21:11:16.333Z,6.40
2023-03-06T21:13:43.852Z,6.40
2023-03-06T21:16:16.207Z,6.50
2023-03-06T21:18:43.508Z,6.40
2023-03-06T21:21:16.734Z,6.40
2023-03-06T21:23:43.437Z,6.30
2023-03-06T21:26:15.127Z,6.40
2023-03-06T21:28:42.455Z,6.30
2023-03-06T21:31:11.459Z,6.30
2023-03-06T21:33:38.892Z,6.30
2023-03-06T21:36:06.420Z,6.30
2023-03-06T21:38:33.655Z,6.30
2023-03-06T21:41:15.906Z,6.20
2023-03-06T21:43:43.271Z,6.20
2023-03-06T21:46:11.154Z,6.20
2023-03-06T21:48:38.358Z,6.20
2023-03-06T21:51:13.899Z,6.40
2023-03-06T21:53:45.291Z,6.40
2023-03-06T21:56:13.694Z,6.50
2023-03-06T21:58:40.494Z,6.70
2023-03-06T22:01:25.919Z,6.80
2023-03-06T22:03:53.238Z,6.70
2023-03-06T22:06:23.233Z,7.00
2023-03-06T22:08:50.402Z,7.00
2023-03-06T22:11:19.740Z,7.00
2023-03-06T22:13:47.891Z,7.00
2023-03-06T22:16:15.452Z,7.30
2023-03-06T22:18:50.128Z,7.00
2023-03-06T22:21:19.195Z,7.00
2023-03-06T22:23:53.961Z,8.00
2023-03-06T22:26:20.782Z,7.20
2023-03-06T22:28:47.622Z,7.20
2023-03-06T22:31:20.744Z,8.30
2023-03-06T22:33:52.121Z,7.20
2023-03-06T22:36:20.095Z,7.20
2023-03-06T22:38:48.356Z,7.30
2023-03-06T22:41:17.465Z,7.30
2023-03-06T22:43:44.234Z,7.40
2023-03-06T22:46:14.073Z,7.50
2023-03-06T22:48:41.771Z,7.20
2023-03-06T22:51:11.286Z,7.30
2023-03-06T22:53:38.555Z,7.00
2023-03-06T22:56:07.931Z,7.00
2023-03-06T22:58:37.157Z,7.00
2023-03-06T23:01:27.115Z,6.90
2023-03-06T23:03:55.949Z,6.70
2023-03-06T23:06:25.567Z,6.60
2023-03-06T23:08:56.496Z,6.60
2023-03-06T23:11:24.616Z,6.60
2023-03-06T23:13:52.795Z,6.50
2023-03-06T23:16:19.608Z,6.30
2023-03-06T23:18:46.491Z,6.30
2023-03-06T23:21:16.546Z,6.50
2023-03-06T23:23:46.780Z,6.30
2023-03-06T23:26:14.792Z,6.10
2023-03-06T23:28:43.203Z,5.90
2023-03-06T23:31:13.039Z,6.10
2023-03-06T23:33:39.872Z,5.90
2023-03-06T23:36:08.885Z,5.90
2023-03-06T23:38:36.010Z,5.70
2023-03-06T23:41:07.694Z,5.70
2023-03-06T23:43:34.735Z,5.50
2023-03-06T23:46:01.790Z,5.50
2023-03-06T23:48:29.209Z,5.30
2023-03-06T23:50:56.098Z,5.10
2023-03-06T23:53:23.650Z,5.20
2023-03-06T23:55:51.575Z,5.00
2023-03-06T23:58:19.383Z,4.90
